createdAt,value
2023-05-10T00:00:00.114Z,19.66
2023-05-10T00:02:05.100Z,19.61
2023-05-10T00:04:10.067Z,19.54
2023-05-10T00:06:14.928Z,19.49
2023-05-10T00:08:19.764Z,19.44
2023-05-10T00:10:24.681Z,19.38
2023-05-10T00:12:29.567Z,19.35
2023-05-10T00:14:34.709Z,19.32
2023-05-10T00:16:42.212Z,19.27
2023-05-10T00:18:47.036Z,19.23
2023-05-10T00:20:52.190Z,19.19
2023-05-10T00:22:57.087Z,19.14
2023-05-10T00:25:02.424Z,19.10
2023-05-10T00:27:08.124Z,19.08
2023-05-10T00:29:13.096Z,19.07
2023-05-10T00:31:18.447Z,19.07
2023-05-10T00:33:26.061Z,19.07
2023-05-10T00:35:31.088Z,19.08
2023-05-10T00:37:35.954Z,19.09
2023-05-10T00:39:40.797Z,19.09
2023-05-10T00:41:45.569Z,19.08
2023-05-10T00:43:50.490Z,19.08
2023-05-10T00:45:56.448Z,19.02
2023-05-10T00:48:01.479Z,19.01
2023-05-10T00:50:10.505Z,19.01
2023-05-10T00:52:15.308Z,19.03
2023-05-10T00:54:20.293Z,19.07
2023-05-10T00:56:25.849Z,19.09
2023-05-10T00:58:32.244Z,19.10
2023-05-10T01:00:38.567Z,19.11
2023-05-10T01:02:44.811Z,19.10
2023-05-10T01:04:49.989Z,19.10
2023-05-10T01:06:57.695Z,19.09
2023-05-10T01:09:02.538Z,19.09
2023-05-10T01:11:07.510Z,19.08
2023-05-10T01:13:13.736Z,19.06
2023-05-10T01:15:20.468Z,19.05
2023-05-10T01:17:26.875Z,19.02
2023-05-10T01:19:36.110Z,19.00
2023-05-10T01:21:46.910Z,18.99
2023-05-10T01:24:23.298Z,18.96
2023-05-10T01:26:57.322Z,18.94
2023-05-10T01:29:31.371Z,18.94
2023-05-10T01:32:10.310Z,18.91
2023-05-10T01:34:23.262Z,18.91
2023-05-10T01:36:35.078Z,18.93
2023-05-10T01:38:47.377Z,18.93
2023-05-10T01:41:02.736Z,18.91
2023-05-10T01:43:12.584Z,18.90
2023-05-10T01:45:24.002Z,18.90
2023-05-10T01:47:35.483Z,18.88
2023-05-10T01:49:47.537Z,18.88
2023-05-10T01:51:57.109Z,18.90
2023-05-10T01:54:06.073Z,18.89
2023-05-10T01:56:12.235Z,18.88
2023-05-10T01:58:22.750Z,18.87
2023-05-10T02:00:28.440Z,18.88
2023-05-10T02:02:36.718Z,18.90
2023-05-10T02:04:45.629Z,18.90
2023-05-10T02:06:51.852Z,18.89
2023-05-10T02:08:59.274Z,18.87
2023-05-10T02:11:05.417Z,18.84
2023-05-10T02:13:12.788Z,18.82
2023-05-10T02:15:22.763Z,18.77
2023-05-10T02:17:29.879Z,18.77
2023-05-10T02:19:37.973Z,18.74
2023-05-10T02:21:46.793Z,18.70
2023-05-10T02:23:56.171Z,18.66
2023-05-10T02:26:03.053Z,18.65
2023-05-10T02:28:10.503Z,18.64
2023-05-10T02:30:16.868Z,18.64
2023-05-10T02:32:24.270Z,18.61
2023-05-10T02:34:31.331Z,18.57
2023-05-10T02:36:37.426Z,18.53
2023-05-10T02:38:47.297Z,18.53
2023-05-10T02:40:52.907Z,18.55
2023-05-10T02:43:00.439Z,18.56
2023-05-10T02:45:09.281Z,18.56
2023-05-10T02:47:14.250Z,18.54
2023-05-10T02:49:19.711Z,18.53
2023-05-10T02:51:29.270Z,18.50
2023-05-10T02:53:37.300Z,18.49
2023-05-10T02:55:45.539Z,18.48
2023-05-10T02:57:57.393Z,18.48
2023-05-10T03:00:02.552Z,18.52
2023-05-10T03:02:08.067Z,18.52
2023-05-10T03:04:13.142Z,18.54
2023-05-10T03:06:18.031Z,18.52
2023-05-10T03:08:23.020Z,18.53
2023-05-10T03:10:33.646Z,18.54
2023-05-10T03:12:56.926Z,18.52
2023-05-10T03:15:07.473Z,18.49
2023-05-10T03:17:27.677Z,18.45
2023-05-10T03:19:41.151Z,18.40
2023-05-10T03:21:53.589Z,18.40
2023-05-10T03:24:03.638Z,18.42
2023-05-10T03:26:09.856Z,18.45
2023-05-10T03:28:19.603Z,18.46
2023-05-10T03:30:26.224Z,18.50
2023-05-10T03:32:33.764Z,18.50
2023-05-10T03:34:45.570Z,18.50
2023-05-10T03:36:50.578Z,18.51
2023-05-10T03:38:55.922Z,18.52
2023-05-10T03:41:00.906Z,18.53
2023-05-10T03:43:05.867Z,18.53
2023-05-10T03:45:14.494Z,18.54
2023-05-10T03:47:19.405Z,18.53
2023-05-10T03:49:24.132Z,18.53
2023-05-10T03:51:29.283Z,18.52
2023-05-10T03:53:34.102Z,18.50
2023-05-10T03:55:39.054Z,18.47
2023-05-10T03:57:43.880Z,18.48
2023-05-10T03:59:48.705Z,18.47
2023-05-10T04:01:56.139Z,18.45
2023-05-10T04:04:01.405Z,18.42
2023-05-10T04:06:06.704Z,18.41
2023-05-10T04:08:11.739Z,18.41
2023-05-10T04:10:17.776Z,18.41
2023-05-10T04:12:22.835Z,18.41
2023-05-10T04:14:27.708Z,18.40
2023-05-10T04:16:32.616Z,18.39
2023-05-10T04:18:40.844Z,18.39
2023-05-10T04:20:45.803Z,18.42
2023-05-10T04:22:50.603Z,18.42
2023-05-10T04:24:55.401Z,18.42
2023-05-10T04:27:00.205Z,18.43
2023-05-10T04:29:05.055Z,18.44
2023-05-10T04:31:11.855Z,18.44
2023-05-10T04:33:16.681Z,18.46
2023-05-10T04:35:24.144Z,18.45
2023-05-10T04:37:29.028Z,18.44
2023-05-10T04:39:33.771Z,18.42
2023-05-10T04:41:38.743Z,18.38
2023-05-10T04:43:43.526Z,18.35
2023-05-10T04:45:48.520Z,18.31
2023-05-10T04:47:53.566Z,18.31
2023-05-10T04:49:58.475Z,18.30
2023-05-10T04:52:05.836Z,18.28
2023-05-10T04:54:11.492Z,18.27
2023-05-10T04:56:17.208Z,18.27
2023-05-10T04:58:22.083Z,18.28
2023-05-10T05:00:27.073Z,18.28
2023-05-10T05:02:32.004Z,18.30
2023-05-10T05:04:36.811Z,18.29
2023-05-10T05:06:41.618Z,18.30
2023-05-10T05:08:50.623Z,18.28
2023-05-10T05:10:55.830Z,18.29
2023-05-10T05:13:00.702Z,18.28
2023-05-10T05:15:07.305Z,18.28
2023-05-10T05:17:16.886Z,18.25
2023-05-10T05:19:21.918Z,18.24
2023-05-10T05:21:28.052Z,18.21
2023-05-10T05:23:32.869Z,18.19
2023-05-10T05:25:40.555Z,18.20
2023-05-10T05:27:45.507Z,18.21
2023-05-10T05:29:50.363Z,18.22
2023-05-10T05:31:55.731Z,18.22
2023-05-10T05:34:00.747Z,18.23
2023-05-10T05:36:07.144Z,18.25
2023-05-10T05:38:12.044Z,18.28
2023-05-10T05:40:17.528Z,18.33
2023-05-10T05:42:25.322Z,18.38
2023-05-10T05:44:30.814Z,18.43
2023-05-10T05:46:36.011Z,18.47
2023-05-10T05:48:40.837Z,18.51
2023-05-10T05:50:46.702Z,18.55
2023-05-10T05:52:51.822Z,18.58
2023-05-10T05:54:56.627Z,18.61
2023-05-10T05:57:02.498Z,18.62
2023-05-10T05:59:10.587Z,18.66
2023-05-10T06:01:15.713Z,18.67
2023-05-10T06:03:21.282Z,18.69
2023-05-10T06:05:26.269Z,18.70
2023-05-10T06:07:31.034Z,18.73
2023-05-10T06:09:35.917Z,18.75
2023-05-10T06:11:41.349Z,18.77
2023-05-10T06:13:46.111Z,18.77
2023-05-10T06:15:53.532Z,18.78
2023-05-10T06:17:58.413Z,18.79
2023-05-10T06:20:03.168Z,18.79
2023-05-10T06:22:07.948Z,18.79
2023-05-10T06:24:12.766Z,18.78
2023-05-10T06:26:17.991Z,18.78
2023-05-10T06:28:22.852Z,18.76
2023-05-10T06:30:30.283Z,18.74
2023-05-10T06:32:38.180Z,18.73
2023-05-10T06:34:44.606Z,18.71
2023-05-10T06:36:49.844Z,18.67
2023-05-10T06:38:54.888Z,18.67
2023-05-10T06:41:00.952Z,18.66
2023-05-10T06:43:05.793Z,18.67
2023-05-10T06:45:12.475Z,18.67
2023-05-10T06:47:17.298Z,18.68
2023-05-10T06:49:25.036Z,18.67
2023-05-10T06:51:29.922Z,18.70
2023-05-10T06:53:34.763Z,18.72
2023-05-10T06:55:39.565Z,18.74
2023-05-10T06:57:44.376Z,18.76
2023-05-10T06:59:49.284Z,18.77
2023-05-10T07:01:55.210Z,18.80
2023-05-10T07:04:00.190Z,18.82
2023-05-10T07:06:15.640Z,18.83
2023-05-10T07:08:26.891Z,18.85
2023-05-10T07:10:31.728Z,18.88
2023-05-10T07:12:36.662Z,18.89
2023-05-10T07:14:41.508Z,18.90
2023-05-10T07:16:46.528Z,18.92
2023-05-10T07:18:51.830Z,18.93
2023-05-10T07:20:56.751Z,18.94
2023-05-10T07:23:04.092Z,18.94
2023-05-10T07:25:10.293Z,18.95
2023-05-10T07:27:15.176Z,18.95
2023-05-10T07:29:19.972Z,18.96
2023-05-10T07:31:24.754Z,18.98
2023-05-10T07:33:29.593Z,18.99
2023-05-10T07:35:34.342Z,19.01
2023-05-10T07:37:39.196Z,19.02
2023-05-10T07:39:46.654Z,19.04
2023-05-10T07:41:51.644Z,19.07
2023-05-10T07:43:56.767Z,19.09
2023-05-10T07:46:01.653Z,19.11
2023-05-10T07:48:06.777Z,19.14
2023-05-10T07:50:13.540Z,19.17
2023-05-10T07:52:18.424Z,19.19
2023-05-10T07:54:23.241Z,19.22
2023-05-10T07:56:33.244Z,19.23
2023-05-10T07:58:38.037Z,19.26
2023-05-10T08:00:43.073Z,19.27
2023-05-10T08:02:48.127Z,19.29
2023-05-10T08:04:53.245Z,19.31
2023-05-10T08:06:58.193Z,19.32
2023-05-10T08:09:03.021Z,19.35
2023-05-10T08:11:08.322Z,19.38
2023-05-10T08:13:15.667Z,19.39
2023-05-10T08:15:20.761Z,19.42
2023-05-10T08:17:25.783Z,19.46
2023-05-10T08:19:30.607Z,19.49
2023-05-10T08:21:35.430Z,19.52
2023-05-10T08:23:40.216Z,19.56
2023-05-10T08:25:45.190Z,19.61
2023-05-10T08:27:49.951Z,19.66
2023-05-10T08:29:57.350Z,19.68
2023-05-10T08:32:02.525Z,19.74
2023-05-10T08:34:07.276Z,19.77
2023-05-10T08:36:12.471Z,19.78
2023-05-10T08:38:17.263Z,19.81
2023-05-10T08:40:23.790Z,19.82
2023-05-10T08:42:32.803Z,19.84
2023-05-10T08:44:39.954Z,19.87
2023-05-10T08:46:51.000Z,19.88
2023-05-10T08:48:58.012Z,19.92
2023-05-10T08:51:04.681Z,19.99
2023-05-10T08:53:13.093Z,20.06
2023-05-10T08:55:19.303Z,20.17
2023-05-10T08:57:24.311Z,20.29
2023-05-10T08:59:29.331Z,20.40
2023-05-10T09:01:36.358Z,20.52
2023-05-10T09:03:45.141Z,20.62
2023-05-10T09:05:50.745Z,20.69
2023-05-10T09:07:55.888Z,20.75
2023-05-10T09:10:01.848Z,20.81
2023-05-10T09:12:07.659Z,20.89
2023-05-10T09:14:13.676Z,20.99
2023-05-10T09:16:22.010Z,21.10
2023-05-10T09:18:28.207Z,21.24
2023-05-10T09:20:35.799Z,21.38
2023-05-10T09:22:41.300Z,21.50
2023-05-10T09:24:47.791Z,21.59
2023-05-10T09:26:53.323Z,21.69
2023-05-10T09:29:00.216Z,21.80
2023-05-10T09:31:05.226Z,21.89
2023-05-10T09:33:10.231Z,22.03
2023-05-10T09:35:16.767Z,22.17
2023-05-10T09:37:33.352Z,22.34
2023-05-10T09:39:40.269Z,22.50
2023-05-10T09:41:46.560Z,22.63
2023-05-10T09:43:52.594Z,22.74
2023-05-10T09:45:57.490Z,22.83
2023-05-10T09:48:04.918Z,22.90
2023-05-10T09:50:11.057Z,22.94
2023-05-10T09:52:15.840Z,22.93
2023-05-10T09:54:24.942Z,22.90
2023-05-10T09:56:41.357Z,22.88
2023-05-10T09:58:46.339Z,22.82
2023-05-10T10:00:53.365Z,22.75
2023-05-10T10:02:59.993Z,22.67
2023-05-10T10:05:05.864Z,22.56
2023-05-10T10:07:11.022Z,22.46
2023-05-10T10:09:16.000Z,22.34
2023-05-10T10:11:23.600Z,22.21
2023-05-10T10:13:28.626Z,22.10
2023-05-10T10:15:33.544Z,22.00
2023-05-10T10:17:41.387Z,21.88
2023-05-10T10:19:46.431Z,21.78
2023-05-10T10:21:51.603Z,21.68
2023-05-10T10:23:57.144Z,21.57
2023-05-10T10:26:02.999Z,21.48
2023-05-10T10:28:22.797Z,21.39
2023-05-10T10:30:33.171Z,21.31
2023-05-10T10:35:06.936Z,21.19
2023-05-10T10:37:11.891Z,21.15
2023-05-10T10:39:18.181Z,21.10
2023-05-10T10:41:32.310Z,21.04
2023-05-10T10:43:39.983Z,21.00
2023-05-10T10:45:44.746Z,20.96
2023-05-10T10:47:49.962Z,20.91
2023-05-10T10:49:57.699Z,20.85
2023-05-10T10:52:25.112Z,20.80
2023-05-10T10:54:32.306Z,20.78
2023-05-10T10:56:37.213Z,20.77
2023-05-10T10:58:45.414Z,20.76
2023-05-10T11:00:50.555Z,20.77
2023-05-10T11:02:57.655Z,20.79
2023-05-10T11:05:02.850Z,20.81
2023-05-10T11:07:21.458Z,20.82
2023-05-10T11:09:28.729Z,20.83
2023-05-10T11:11:33.538Z,20.85
2023-05-10T11:13:46.276Z,20.87
2023-05-10T11:15:52.722Z,20.87
2023-05-10T11:17:57.512Z,20.89
2023-05-10T11:20:12.529Z,20.90
2023-05-10T11:22:19.146Z,20.93
2023-05-10T11:24:26.765Z,20.96
2023-05-10T11:26:35.508Z,20.97
2023-05-10T11:28:48.108Z,20.97
2023-05-10T11:30:53.391Z,20.96
2023-05-10T11:32:58.278Z,20.95
2023-05-10T11:35:03.480Z,20.97
2023-05-10T11:37:08.260Z,21.00
2023-05-10T11:39:13.146Z,21.05
2023-05-10T11:41:22.747Z,21.08
2023-05-10T11:43:31.808Z,21.07
2023-05-10T11:45:39.869Z,21.04
2023-05-10T11:47:44.816Z,21.05
2023-05-10T11:49:50.502Z,21.06
2023-05-10T11:51:55.386Z,21.06
2023-05-10T11:54:01.275Z,21.06
2023-05-10T11:56:08.033Z,21.08
2023-05-10T11:58:12.967Z,21.09
2023-05-10T12:00:18.951Z,21.11
2023-05-10T12:02:26.798Z,21.15
2023-05-10T12:04:32.149Z,21.20
2023-05-10T12:06:43.996Z,21.23
2023-05-10T12:08:53.622Z,21.27
2023-05-10T12:11:08.513Z,21.30
2023-05-10T12:13:17.846Z,21.33
2023-05-10T12:15:24.338Z,21.35
2023-05-10T12:17:34.295Z,21.33
2023-05-10T12:19:42.732Z,21.34
2023-05-10T12:21:48.451Z,21.37
2023-05-10T12:23:55.832Z,21.39
2023-05-10T12:26:06.868Z,21.39
2023-05-10T12:28:12.942Z,21.42
2023-05-10T12:30:23.371Z,21.42
2023-05-10T12:32:47.933Z,21.41
2023-05-10T12:34:53.465Z,21.40
2023-05-10T12:36:59.461Z,21.42
2023-05-10T12:39:07.254Z,21.41
2023-05-10T12:41:13.666Z,21.41
2023-05-10T12:43:18.484Z,21.41
2023-05-10T12:45:23.414Z,21.41
2023-05-10T12:47:28.534Z,21.40
2023-05-10T12:49:35.965Z,21.39
2023-05-10T12:51:40.767Z,21.36
2023-05-10T12:53:49.282Z,21.35
2023-05-10T12:55:54.497Z,21.33
2023-05-10T12:57:59.302Z,21.30
2023-05-10T13:00:06.112Z,21.26
2023-05-10T13:02:11.220Z,21.21
2023-05-10T13:04:16.339Z,21.17
2023-05-10T13:06:23.683Z,21.13
2023-05-10T13:08:30.999Z,21.11
2023-05-10T13:10:36.045Z,21.08
2023-05-10T13:12:41.093Z,21.07
2023-05-10T13:14:45.871Z,21.05
2023-05-10T13:16:50.719Z,21.03
2023-05-10T13:18:55.699Z,21.02
2023-05-10T13:21:00.797Z,21.00
2023-05-10T13:23:08.137Z,20.98
2023-05-10T13:25:13.737Z,20.96
2023-05-10T13:27:18.510Z,20.93
2023-05-10T13:29:23.733Z,20.86
2023-05-10T13:31:28.772Z,20.80
2023-05-10T13:33:33.973Z,20.74
2023-05-10T13:35:38.865Z,20.72
2023-05-10T13:37:43.998Z,20.70
2023-05-10T13:39:51.935Z,20.68
2023-05-10T13:41:56.792Z,20.66
2023-05-10T13:44:01.599Z,20.60
2023-05-10T13:46:06.850Z,20.53
2023-05-10T13:48:11.863Z,20.48
2023-05-10T13:50:16.930Z,20.40
2023-05-10T13:52:21.842Z,20.35
2023-05-10T13:54:30.674Z,20.30
2023-05-10T13:56:38.013Z,20.22
2023-05-10T13:58:42.785Z,20.17
2023-05-10T14:00:48.100Z,20.12
2023-05-10T14:02:52.989Z,20.07
2023-05-10T14:04:58.165Z,20.02
2023-05-10T14:07:02.996Z,19.97
2023-05-10T14:09:07.970Z,19.92
2023-05-10T14:11:12.938Z,19.88
2023-05-10T14:13:20.574Z,19.85
2023-05-10T14:15:25.556Z,19.79
2023-05-10T14:17:30.656Z,19.75
2023-05-10T14:19:35.992Z,19.68
2023-05-10T14:21:41.086Z,19.62
2023-05-10T14:23:45.892Z,19.58
2023-05-10T14:25:50.879Z,19.54
2023-05-10T14:27:55.854Z,19.51
2023-05-10T14:30:03.594Z,19.49
2023-05-10T14:32:08.730Z,19.49
2023-05-10T14:34:13.590Z,19.46
2023-05-10T14:36:18.497Z,19.43
2023-05-10T14:38:23.317Z,19.40
2023-05-10T14:40:28.632Z,19.37
2023-05-10T14:42:33.792Z,19.31
2023-05-10T14:44:39.173Z,19.25
2023-05-10T14:46:46.562Z,19.14
2023-05-10T14:48:51.502Z,19.11
2023-05-10T14:50:56.385Z,19.10
2023-05-10T14:53:01.230Z,19.06
2023-05-10T14:55:06.228Z,18.99
2023-05-10T14:57:11.199Z,18.93
2023-05-10T14:59:15.995Z,18.91
2023-05-10T15:01:21.359Z,18.90
2023-05-10T15:03:29.973Z,18.90
2023-05-10T15:05:35.497Z,18.90
2023-05-10T15:07:41.134Z,18.87
2023-05-10T15:09:46.378Z,18.86
2023-05-10T15:11:51.105Z,18.85
2023-05-10T15:13:56.083Z,18.84
2023-05-10T15:16:01.263Z,18.84
2023-05-10T15:18:06.854Z,18.82
2023-05-10T15:20:15.903Z,18.81
2023-05-10T15:22:20.704Z,18.80
2023-05-10T15:24:25.634Z,18.81
2023-05-10T15:26:30.583Z,18.81
2023-05-10T15:28:35.573Z,18.77
2023-05-10T15:30:40.309Z,18.76
2023-05-10T15:32:45.131Z,18.76
2023-05-10T15:34:50.243Z,18.79
2023-05-10T15:36:57.814Z,18.79
2023-05-10T15:39:02.601Z,18.80
2023-05-10T15:41:07.745Z,18.77
2023-05-10T15:43:12.655Z,18.76
2023-05-10T15:45:18.128Z,18.76
2023-05-10T15:47:23.082Z,18.76
2023-05-10T15:49:27.845Z,18.75
2023-05-10T15:51:35.391Z,18.75
2023-05-10T15:53:56.373Z,18.74
2023-05-10T15:56:09.975Z,18.70
2023-05-10T15:58:14.726Z,18.66
2023-05-10T16:00:20.594Z,18.60
2023-05-10T16:02:25.535Z,18.56
2023-05-10T16:04:30.435Z,18.51
2023-05-10T16:06:35.196Z,18.51
2023-05-10T16:08:40.395Z,18.52
2023-05-10T16:10:47.795Z,18.52
2023-05-10T16:12:52.562Z,18.55
2023-05-10T16:14:57.331Z,18.57
2023-05-10T16:17:05.113Z,18.60
2023-05-10T16:19:10.064Z,18.62
2023-05-10T16:21:14.949Z,18.64
2023-05-10T16:23:19.748Z,18.64
2023-05-10T16:25:24.545Z,18.64
2023-05-10T16:27:33.674Z,18.62
2023-05-10T16:29:38.496Z,18.59
2023-05-10T16:31:43.273Z,18.58
2023-05-10T16:33:48.229Z,18.55
2023-05-10T16:35:53.226Z,18.53
2023-05-10T16:37:58.138Z,18.52
2023-05-10T16:40:03.251Z,18.52
2023-05-10T16:42:08.309Z,18.48
2023-05-10T16:44:15.727Z,18.44
2023-05-10T16:46:20.548Z,18.39
2023-05-10T16:48:25.281Z,18.37
2023-05-10T16:50:30.125Z,18.35
2023-05-10T16:52:35.512Z,18.35
2023-05-10T16:54:40.533Z,18.34
2023-05-10T16:56:45.412Z,18.33
2023-05-10T16:58:50.762Z,18.30
2023-05-10T17:00:58.174Z,18.26
2023-05-10T17:03:02.976Z,18.26
2023-05-10T17:05:08.777Z,18.25
2023-05-10T17:07:13.824Z,18.24
2023-05-10T17:09:20.381Z,18.20
2023-05-10T17:11:25.121Z,18.18
2023-05-10T17:13:29.840Z,18.17
2023-05-10T17:15:34.655Z,18.17
2023-05-10T17:17:42.148Z,18.10
2023-05-10T17:19:48.183Z,18.09
2023-05-10T17:21:53.127Z,18.08
2023-05-10T17:23:58.047Z,18.08
2023-05-10T17:26:03.017Z,18.05
2023-05-10T17:28:07.966Z,18.05
2023-05-10T17:30:13.670Z,18.06
2023-05-10T17:32:18.497Z,18.08
2023-05-10T17:34:26.198Z,18.08
2023-05-10T17:36:31.155Z,18.08
2023-05-10T17:38:36.112Z,18.08
2023-05-10T17:40:43.311Z,18.07
2023-05-10T17:42:48.451Z,18.09
2023-05-10T17:44:53.228Z,18.08
2023-05-10T17:46:57.968Z,18.07
2023-05-10T17:49:02.950Z,18.06
2023-05-10T17:51:11.483Z,18.05
2023-05-10T17:53:16.279Z,18.02
2023-05-10T17:55:21.089Z,18.01
2023-05-10T17:57:26.358Z,18.00
2023-05-10T17:59:31.240Z,17.99
2023-05-10T18:01:36.156Z,17.96
2023-05-10T18:03:40.940Z,17.92
2023-05-10T18:05:46.122Z,17.90
2023-05-10T18:07:53.544Z,17.86
2023-05-10T18:09:58.451Z,17.85
2023-05-10T18:12:05.144Z,17.84
2023-05-10T18:14:10.429Z,17.83
2023-05-10T18:16:15.528Z,17.79
2023-05-10T18:18:20.395Z,17.76
2023-05-10T18:20:25.427Z,17.75
2023-05-10T18:22:30.310Z,17.72
2023-05-10T18:24:39.596Z,17.72
2023-05-10T18:26:46.645Z,17.67
2023-05-10T18:28:51.605Z,17.60
2023-05-10T18:30:56.396Z,17.56
2023-05-10T18:33:01.480Z,17.52
2023-05-10T18:35:07.075Z,17.51
2023-05-10T18:37:12.546Z,17.48
2023-05-10T18:39:18.579Z,17.41
2023-05-10T18:41:26.999Z,17.37
2023-05-10T18:43:31.781Z,17.35
2023-05-10T18:45:36.653Z,17.34
2023-05-10T18:47:41.641Z,17.35
2023-05-10T18:49:46.712Z,17.35
2023-05-10T18:51:51.667Z,17.33
2023-05-10T18:53:56.485Z,17.29
2023-05-10T18:56:02.017Z,17.31
2023-05-10T18:58:09.579Z,17.29
2023-05-10T19:00:16.643Z,17.28
2023-05-10T19:02:21.666Z,17.26
2023-05-10T19:04:26.699Z,17.24
2023-05-10T19:06:31.959Z,17.23
2023-05-10T19:08:36.715Z,17.19
2023-05-10T19:10:41.446Z,17.14
2023-05-10T19:12:46.254Z,17.09
2023-05-10T19:14:53.886Z,17.03
2023-05-10T19:16:58.806Z,17.03
2023-05-10T19:19:03.935Z,17.05
2023-05-10T19:21:10.989Z,17.06
2023-05-10T19:23:15.670Z,17.10
2023-05-10T19:25:21.719Z,17.13
2023-05-10T19:27:26.486Z,17.15
2023-05-10T19:29:31.583Z,17.18
2023-05-10T19:31:39.533Z,17.19
2023-05-10T19:33:44.330Z,17.23
2023-05-10T19:35:49.452Z,17.25
2023-05-10T19:37:54.701Z,17.27
2023-05-10T19:39:59.653Z,17.30
2023-05-10T19:42:05.810Z,17.31
2023-05-10T19:44:10.649Z,17.30
2023-05-10T19:46:17.825Z,17.29
2023-05-10T19:48:26.745Z,17.28
2023-05-10T19:50:31.624Z,17.28
2023-05-10T19:52:36.542Z,17.29
2023-05-10T19:54:41.652Z,17.28
2023-05-10T19:56:46.434Z,17.30
2023-05-10T19:58:51.220Z,17.28
2023-05-10T20:00:55.938Z,17.28
2023-05-10T20:03:01.187Z,17.26
2023-05-10T20:05:09.844Z,17.25
2023-05-10T20:07:14.631Z,17.24
2023-05-10T20:09:19.513Z,17.23
2023-05-10T20:11:24.662Z,17.23
2023-05-10T20:13:29.497Z,17.23
2023-05-10T20:15:34.459Z,17.25
2023-05-10T20:17:39.826Z,17.25
2023-05-10T20:19:45.244Z,17.26
2023-05-10T20:21:52.671Z,17.26
2023-05-10T20:23:57.654Z,17.27
2023-05-10T20:26:02.890Z,17.27
2023-05-10T20:28:08.707Z,17.28
2023-05-10T20:30:14.604Z,17.28
2023-05-10T20:32:19.699Z,17.27
2023-05-10T20:34:24.393Z,17.26
2023-05-10T20:36:29.608Z,17.26
2023-05-10T20:38:37.028Z,17.25
2023-05-10T20:40:41.807Z,17.25
2023-05-10T20:42:46.666Z,17.25
2023-05-10T20:44:51.797Z,17.25
2023-05-10T20:46:56.693Z,17.24
2023-05-10T20:49:01.558Z,17.23
2023-05-10T20:51:06.538Z,17.21
2023-05-10T20:53:11.403Z,17.18
2023-05-10T20:55:19.075Z,17.13
2023-05-10T20:57:24.140Z,17.12
2023-05-10T20:59:28.980Z,17.12
2023-05-10T21:01:33.969Z,17.10
2023-05-10T21:03:38.777Z,17.09
2023-05-10T21:05:43.689Z,17.09
2023-05-10T21:07:49.534Z,17.07
2023-05-10T21:09:54.286Z,17.06
2023-05-10T21:12:03.555Z,17.05
2023-05-10T21:14:09.874Z,17.04
2023-05-10T21:16:14.598Z,17.05
2023-05-10T21:18:19.667Z,17.04
2023-05-10T21:20:25.436Z,17.03
2023-05-10T21:22:30.489Z,17.03
2023-05-10T21:24:35.344Z,17.03
2023-05-10T21:26:40.392Z,17.01
2023-05-10T21:28:48.900Z,17.01
2023-05-10T21:30:54.306Z,17.00
2023-05-10T21:33:00.105Z,16.99
2023-05-10T21:35:05.603Z,16.98
2023-05-10T21:37:10.357Z,16.98
2023-05-10T21:39:15.366Z,16.95
2023-05-10T21:41:20.491Z,16.92
2023-05-10T21:43:25.305Z,16.91
2023-05-10T21:45:33.416Z,16.91
2023-05-10T21:47:38.407Z,16.90
2023-05-10T21:49:43.490Z,16.88
2023-05-10T21:51:48.901Z,16.86
2023-05-10T21:53:53.653Z,16.84
2023-05-10T21:55:59.437Z,16.81
2023-05-10T21:58:04.277Z,16.77
2023-05-10T22:00:11.838Z,16.74
2023-05-10T22:02:20.056Z,16.72
2023-05-10T22:04:24.798Z,16.70
2023-05-10T22:06:29.577Z,16.68
2023-05-10T22:08:34.408Z,16.66
2023-05-10T22:10:39.397Z,16.65
2023-05-10T22:12:44.225Z,16.63
2023-05-10T22:14:53.934Z,16.63
2023-05-10T22:17:04.402Z,16.60
2023-05-10T22:19:11.741Z,16.58
2023-05-10T22:21:16.647Z,16.57
2023-05-10T22:23:21.677Z,16.56
2023-05-10T22:25:26.450Z,16.55
2023-05-10T22:27:31.286Z,16.54
2023-05-10T22:29:36.410Z,16.55
2023-05-10T22:31:41.321Z,16.55
2023-05-10T22:33:46.444Z,16.54
2023-05-10T22:35:53.875Z,16.55
2023-05-10T22:37:58.600Z,16.54
2023-05-10T22:40:04.150Z,16.53
2023-05-10T22:42:09.022Z,16.53
2023-05-10T22:44:13.723Z,16.52
2023-05-10T22:46:18.866Z,16.51
2023-05-10T22:48:23.750Z,16.50
2023-05-10T22:50:29.426Z,16.49
2023-05-10T22:52:38.989Z,16.48
2023-05-10T22:54:44.454Z,16.47
2023-05-10T22:56:49.295Z,16.47
2023-05-10T22:58:54.452Z,16.46
2023-05-10T23:00:59.276Z,16.45
2023-05-10T23:03:04.081Z,16.44
2023-05-10T23:05:10.767Z,16.39
2023-05-10T23:07:15.808Z,16.37
2023-05-10T23:09:23.163Z,16.35
2023-05-10T23:11:28.030Z,16.36
2023-05-10T23:13:32.797Z,16.35
2023-05-10T23:15:38.197Z,16.36
2023-05-10T23:17:43.006Z,16.37
2023-05-10T23:19:48.099Z,16.36
2023-05-10T23:21:52.896Z,16.35
2023-05-10T23:23:57.801Z,16.34
2023-05-10T23:26:05.464Z,16.28
2023-05-10T23:28:10.320Z,16.21
2023-05-10T23:30:15.744Z,16.14
2023-05-10T23:32:20.665Z,16.07
2023-05-10T23:34:25.411Z,16.04
2023-05-10T23:36:31.972Z,16.02
2023-05-10T23:38:36.764Z,15.98
2023-05-10T23:40:41.512Z,15.94
2023-05-10T23:42:48.953Z,15.91
2023-05-10T23:44:53.747Z,15.84
2023-05-10T23:46:58.725Z,15.82
2023-05-10T23:49:03.554Z,15.80
2023-05-10T23:51:08.443Z,15.79
2023-05-10T23:53:13.299Z,15.76
2023-05-10T23:55:18.176Z,15.74
2023-05-10T23:57:23.081Z,15.71
2023-05-10T23:59:30.897Z,15.70
